createdAt,value
2022-10-09T00:01:27.999Z,10.23
2022-10-09T00:03:56.727Z,15.80
2022-10-09T00:06:31.789Z,14.57
2022-10-09T00:09:02.004Z,11.02
2022-10-09T00:11:31.936Z,15.88
2022-10-09T00:13:59.562Z,13.15
2022-10-09T00:16:26.861Z,11.07
2022-10-09T00:18:54.704Z,12.60
2022-10-09T00:21:29.007Z,14.85
2022-10-09T00:23:59.795Z,12.05
2022-10-09T00:26:28.112Z,9.68
2022-10-09T00:28:55.617Z,12.88
2022-10-09T00:31:23.140Z,11.80
2022-10-09T00:33:50.278Z,18.52
2022-10-09T00:36:23.112Z,11.68
2022-10-09T00:38:51.128Z,11.32
2022-10-09T00:41:24.157Z,12.60
2022-10-09T00:43:55.401Z,12.43
2022-10-09T00:46:45.104Z,14.00
2022-10-09T00:49:29.307Z,9.60
2022-10-09T00:52:01.501Z,12.23
2022-10-09T00:54:33.385Z,10.70
2022-10-09T00:57:00.671Z,10.43
2022-10-09T00:59:28.138Z,12.88
2022-10-09T01:01:55.172Z,13.98
2022-10-09T01:04:22.184Z,11.30
2022-10-09T01:07:05.269Z,12.45
2022-10-09T01:09:48.527Z,12.87
2022-10-09T01:12:39.192Z,10.30
2022-10-09T01:16:01.537Z,10.95
2022-10-09T01:18:43.030Z,11.90
2022-10-09T01:21:26.319Z,10.95
2022-10-09T01:24:17.660Z,11.20
2022-10-09T01:27:14.493Z,13.90
2022-10-09T01:29:49.484Z,10.68
2022-10-09T01:32:21.944Z,13.50
2022-10-09T01:34:51.520Z,12.10
2022-10-09T01:37:21.031Z,9.53
2022-10-09T01:39:49.940Z,15.32
2022-10-09T01:42:19.947Z,10.23
2022-10-09T01:44:46.854Z,14.75
2022-10-09T01:47:17.364Z,13.07
2022-10-09T01:49:59.223Z,13.27
2022-10-09T01:52:58.032Z,9.63
2022-10-09T01:55:55.902Z,13.43
2022-10-09T01:58:55.786Z,14.35
2022-10-09T02:01:31.708Z,10.40
2022-10-09T02:04:03.087Z,10.13
2022-10-09T02:06:31.482Z,10.68
2022-10-09T02:08:59.780Z,14.18
2022-10-09T02:11:30.788Z,13.38
2022-10-09T02:13:58.549Z,16.05
2022-10-09T02:16:42.282Z,12.87
2022-10-09T02:19:30.757Z,13.35
2022-10-09T02:22:05.926Z,10.77
2022-10-09T02:24:33.434Z,14.98
2022-10-09T02:27:02.075Z,12.75
2022-10-09T02:29:29.090Z,13.07
2022-10-09T02:31:56.010Z,13.27
2022-10-09T02:34:22.916Z,11.00
2022-10-09T02:36:50.052Z,10.73
2022-10-09T02:39:17.211Z,11.63
2022-10-09T02:41:44.071Z,12.20
2022-10-09T02:44:11.022Z,13.32
2022-10-09T02:46:38.455Z,11.27
2022-10-09T02:49:06.520Z,13.13
2022-10-09T02:51:33.483Z,12.65
2022-10-09T02:54:00.360Z,12.97
2022-10-09T02:56:27.843Z,12.63
2022-10-09T02:58:55.077Z,13.95
2022-10-09T03:01:22.449Z,14.13
2022-10-09T03:03:49.491Z,11.68
2022-10-09T03:06:23.900Z,13.37
2022-10-09T03:08:52.715Z,13.02
2022-10-09T03:11:22.634Z,15.30
2022-10-09T03:13:50.102Z,10.07
2022-10-09T03:16:20.956Z,14.25
2022-10-09T03:18:49.438Z,16.40
2022-10-09T03:21:20.745Z,13.60
2022-10-09T03:23:48.063Z,12.52
2022-10-09T03:26:19.439Z,13.70
2022-10-09T03:28:49.439Z,15.77
2022-10-09T03:31:39.699Z,12.77
2022-10-09T03:34:05.702Z,16.45
2022-10-09T03:36:32.603Z,12.95
2022-10-09T03:38:59.499Z,12.25
2022-10-09T03:41:26.385Z,10.98
2022-10-09T03:43:53.243Z,11.00
2022-10-09T03:46:20.212Z,11.15
2022-10-09T03:48:47.109Z,12.85
2022-10-09T03:51:14.069Z,8.57
2022-10-09T03:53:40.943Z,12.13
2022-10-09T03:56:07.876Z,12.13
2022-10-09T03:58:34.805Z,13.77
2022-10-09T04:01:01.779Z,12.80
2022-10-09T04:03:28.910Z,13.27
2022-10-09T04:05:55.839Z,12.65
2022-10-09T04:08:22.788Z,13.13
2022-10-09T04:10:57.768Z,16.38
2022-10-09T04:13:24.856Z,12.35
2022-10-09T04:15:53.348Z,13.75
2022-10-09T04:18:20.499Z,13.82
2022-10-09T04:20:53.378Z,12.27
2022-10-09T04:23:23.087Z,16.67
2022-10-09T04:25:54.850Z,12.60
2022-10-09T04:28:23.373Z,14.55
2022-10-09T04:30:50.615Z,16.67
2022-10-09T04:33:17.824Z,13.57
2022-10-09T04:35:46.741Z,14.90
2022-10-09T04:38:13.671Z,12.32
2022-10-09T04:40:40.993Z,17.40
2022-10-09T04:43:08.126Z,14.45
2022-10-09T04:45:40.589Z,14.67
2022-10-09T04:48:07.485Z,11.93
2022-10-09T04:50:34.361Z,11.63
2022-10-09T04:53:01.258Z,12.27
2022-10-09T04:55:28.149Z,12.18
2022-10-09T04:57:55.076Z,12.00
2022-10-09T05:00:22.289Z,14.70
2022-10-09T05:02:49.388Z,13.02
2022-10-09T05:05:16.511Z,11.63
2022-10-09T05:07:43.389Z,14.20
2022-10-09T05:10:10.445Z,13.97
2022-10-09T05:12:37.324Z,14.88
2022-10-09T05:15:05.186Z,14.98
2022-10-09T05:17:32.264Z,12.02
2022-10-09T05:19:59.183Z,11.75
2022-10-09T05:22:26.146Z,13.50
2022-10-09T05:24:53.015Z,13.75
2022-10-09T05:27:19.886Z,14.13
2022-10-09T05:29:46.770Z,14.35
2022-10-09T05:32:14.622Z,16.05
2022-10-09T05:34:41.564Z,16.27
2022-10-09T05:37:08.487Z,20.52
2022-10-09T05:39:39.341Z,15.30
2022-10-09T05:42:06.435Z,12.07
2022-10-09T05:44:33.376Z,13.85
2022-10-09T05:47:00.261Z,13.97
2022-10-09T05:49:27.124Z,14.23
2022-10-09T05:51:55.803Z,14.63
2022-10-09T05:54:22.830Z,14.65
2022-10-09T05:56:49.873Z,10.95
2022-10-09T05:59:19.735Z,12.77
2022-10-09T06:01:50.368Z,16.65
2022-10-09T06:04:23.698Z,14.02
2022-10-09T06:06:51.356Z,15.20
2022-10-09T06:09:22.895Z,11.23
2022-10-09T06:11:51.382Z,15.77
2022-10-09T06:14:20.602Z,14.13
2022-10-09T06:16:47.634Z,17.70
2022-10-09T06:19:17.494Z,11.77
2022-10-09T06:21:45.275Z,13.73
2022-10-09T06:24:29.036Z,14.07
2022-10-09T06:26:57.665Z,17.02
2022-10-09T06:29:25.028Z,12.55
2022-10-09T06:31:52.150Z,11.23
2022-10-09T06:34:19.187Z,12.57
2022-10-09T06:36:46.092Z,14.17
2022-10-09T06:39:13.121Z,14.45
2022-10-09T06:41:40.065Z,15.05
2022-10-09T06:44:16.081Z,15.15
2022-10-09T06:46:45.684Z,13.45
2022-10-09T06:49:12.946Z,13.10
2022-10-09T06:51:39.951Z,20.52
2022-10-09T06:54:13.490Z,12.65
2022-10-09T06:56:40.944Z,14.00
2022-10-09T06:59:09.802Z,13.30
2022-10-09T07:01:36.794Z,16.83
2022-10-09T07:04:14.635Z,14.82
2022-10-09T07:06:46.617Z,21.55
2022-10-09T07:09:15.379Z,14.60
2022-10-09T07:11:46.724Z,19.70
2022-10-09T07:14:15.813Z,17.17
2022-10-09T07:16:45.949Z,18.70
2022-10-09T07:19:14.385Z,18.45
2022-10-09T07:21:45.266Z,17.02
2022-10-09T07:24:13.521Z,17.48
2022-10-09T07:26:44.467Z,27.00
2022-10-09T07:29:14.687Z,26.88
2022-10-09T07:31:41.578Z,35.60
2022-10-09T07:34:08.609Z,32.33
2022-10-09T07:36:36.354Z,31.90
2022-10-09T07:39:05.197Z,29.50
2022-10-09T07:41:32.482Z,32.00
2022-10-09T07:43:59.435Z,27.95
2022-10-09T07:46:32.994Z,24.17
2022-10-09T07:49:00.762Z,28.02
2022-10-09T07:51:29.176Z,21.60
2022-10-09T07:53:57.183Z,19.25
2022-10-09T07:56:28.992Z,23.10
2022-10-09T07:59:02.200Z,20.67
2022-10-09T08:01:31.084Z,30.00
2022-10-09T08:03:59.227Z,45.53
2022-10-09T08:06:26.439Z,34.72
2022-10-09T08:08:56.015Z,24.38
2022-10-09T08:11:25.436Z,25.05
2022-10-09T08:13:53.676Z,27.52
2022-10-09T08:16:22.595Z,32.30
2022-10-09T08:18:53.552Z,23.98
2022-10-09T08:21:20.476Z,22.40
2022-10-09T08:23:47.357Z,29.02
2022-10-09T08:26:20.599Z,23.40
2022-10-09T08:28:57.190Z,19.57
2022-10-09T08:31:24.889Z,18.85
2022-10-09T08:33:57.464Z,21.85
2022-10-09T08:36:25.355Z,20.17
2022-10-09T08:38:53.064Z,21.90
2022-10-09T08:41:49.992Z,23.07
2022-10-09T08:44:42.352Z,23.52
2022-10-09T08:47:25.640Z,27.13
2022-10-09T08:49:59.541Z,19.40
2022-10-09T08:53:01.802Z,18.20
2022-10-09T08:55:33.373Z,20.30
2022-10-09T08:58:11.570Z,22.65
2022-10-09T09:00:57.892Z,20.98
2022-10-09T09:03:44.042Z,23.70
2022-10-09T09:06:37.144Z,28.13
2022-10-09T09:09:45.106Z,19.97
2022-10-09T09:12:50.665Z,24.13
2022-10-09T09:15:59.892Z,26.52
2022-10-09T09:19:18.936Z,20.80
2022-10-09T09:21:53.965Z,16.55
2022-10-09T09:24:54.605Z,19.30
2022-10-09T09:27:36.557Z,17.65
2022-10-09T09:30:09.377Z,18.45
2022-10-09T09:32:38.225Z,18.20
2022-10-09T09:35:32.736Z,19.05
2022-10-09T09:38:00.020Z,15.80
2022-10-09T09:40:38.152Z,17.38
2022-10-09T09:43:26.865Z,18.30
2022-10-09T09:45:57.589Z,17.77
2022-10-09T09:48:41.370Z,15.75
2022-10-09T09:51:34.426Z,16.03
2022-10-09T09:54:23.593Z,13.30
2022-10-09T09:57:11.836Z,14.20
2022-10-09T09:59:43.016Z,14.95
2022-10-09T10:02:26.738Z,13.85
2022-10-09T10:05:15.799Z,20.60
2022-10-09T10:07:42.844Z,24.90
2022-10-09T10:10:27.604Z,15.32
2022-10-09T10:12:58.605Z,12.95
2022-10-09T10:15:28.737Z,13.23
2022-10-09T10:18:05.784Z,16.57
2022-10-09T10:20:52.973Z,14.75
2022-10-09T10:23:58.436Z,12.15
2022-10-09T10:26:36.036Z,14.35
2022-10-09T10:29:10.062Z,13.95
2022-10-09T10:32:12.080Z,9.77
2022-10-09T10:35:21.408Z,14.05
2022-10-09T10:38:03.026Z,11.95
2022-10-09T10:40:38.035Z,16.55
2022-10-09T10:43:10.796Z,11.45
2022-10-09T10:45:53.644Z,11.63
2022-10-09T10:48:39.413Z,13.90
2022-10-09T10:51:24.311Z,13.82
2022-10-09T10:54:19.395Z,13.60
2022-10-09T10:56:53.948Z,13.23
2022-10-09T10:59:43.503Z,11.90
2022-10-09T11:02:17.525Z,13.70
2022-10-09T11:05:02.425Z,11.95
2022-10-09T11:08:03.788Z,12.07
2022-10-09T11:10:39.309Z,15.10
2022-10-09T11:13:39.719Z,18.83
2022-10-09T11:16:33.578Z,10.73
2022-10-09T11:19:44.461Z,10.82
2022-10-09T11:22:36.686Z,10.18
2022-10-09T11:25:29.988Z,9.90
2022-10-09T11:28:13.894Z,12.37
2022-10-09T11:30:49.863Z,13.57
2022-10-09T11:33:51.208Z,11.43
2022-10-09T11:36:33.005Z,10.75
2022-10-09T11:39:05.397Z,11.60
2022-10-09T11:41:35.639Z,10.60
2022-10-09T11:44:47.311Z,10.95
2022-10-09T11:47:41.940Z,11.23
2022-10-09T11:50:48.835Z,10.55
2022-10-09T11:53:20.053Z,8.10
2022-10-09T11:55:48.209Z,10.57
2022-10-09T11:58:25.823Z,11.15
2022-10-09T12:00:56.063Z,10.90
2022-10-09T12:03:34.686Z,9.23
2022-10-09T12:06:11.341Z,12.68
2022-10-09T12:08:43.128Z,9.70
2022-10-09T12:11:19.871Z,12.93
2022-10-09T12:13:56.119Z,12.35
2022-10-09T12:16:45.277Z,10.05
2022-10-09T12:19:39.170Z,7.65
2022-10-09T12:22:30.691Z,9.93
2022-10-09T12:25:12.495Z,8.20
2022-10-09T12:27:41.483Z,13.02
2022-10-09T12:30:14.820Z,11.40
2022-10-09T12:33:25.447Z,9.88
2022-10-09T12:36:09.978Z,9.93
2022-10-09T12:38:36.939Z,10.48
2022-10-09T12:41:10.798Z,11.10
2022-10-09T12:43:43.248Z,15.70
2022-10-09T12:46:10.294Z,9.30
2022-10-09T12:48:41.950Z,9.90
2022-10-09T12:51:17.511Z,9.35
2022-10-09T12:53:50.690Z,10.23
2022-10-09T12:56:33.062Z,15.40
2022-10-09T12:59:02.161Z,10.98
2022-10-09T13:01:29.759Z,10.77
2022-10-09T13:04:06.116Z,14.25
2022-10-09T13:06:46.529Z,11.68
2022-10-09T13:09:37.268Z,8.88
2022-10-09T13:12:13.367Z,10.70
2022-10-09T13:14:57.946Z,8.53
2022-10-09T13:17:39.852Z,9.32
2022-10-09T13:20:12.475Z,11.52
2022-10-09T13:22:40.153Z,9.68
2022-10-09T13:25:09.056Z,10.95
2022-10-09T13:27:40.286Z,10.70
2022-10-09T13:30:10.837Z,9.60
2022-10-09T13:32:37.778Z,9.90
2022-10-09T13:35:05.133Z,13.18
2022-10-09T13:37:32.119Z,13.27
2022-10-09T13:40:00.834Z,10.10
2022-10-09T13:42:38.268Z,11.38
2022-10-09T13:45:06.759Z,12.43
2022-10-09T13:47:33.683Z,13.10
2022-10-09T13:50:00.653Z,17.30
2022-10-09T13:52:27.586Z,15.03
2022-10-09T13:54:54.607Z,8.23
2022-10-09T13:57:21.488Z,10.50
2022-10-09T13:59:48.365Z,10.13
2022-10-09T14:02:15.366Z,12.35
2022-10-09T14:04:42.335Z,10.33
2022-10-09T14:07:09.331Z,10.85
2022-10-09T14:09:36.393Z,9.98
2022-10-09T14:12:03.387Z,11.15
2022-10-09T14:14:30.388Z,13.45
2022-10-09T14:16:57.555Z,13.60
2022-10-09T14:19:28.045Z,9.82
2022-10-09T14:21:56.717Z,9.13
2022-10-09T14:24:24.706Z,9.15
2022-10-09T14:26:52.000Z,10.43
2022-10-09T14:29:19.291Z,9.47
2022-10-09T14:31:46.388Z,11.35
2022-10-09T14:34:14.628Z,12.15
2022-10-09T14:36:42.227Z,9.48
2022-10-09T14:39:09.189Z,9.85
2022-10-09T14:41:37.947Z,11.20
2022-10-09T14:44:06.062Z,11.35
2022-10-09T14:46:38.471Z,11.93
2022-10-09T14:49:07.869Z,11.48
2022-10-09T14:51:37.889Z,11.32
2022-10-09T14:54:07.121Z,11.10
2022-10-09T14:56:34.633Z,9.43
2022-10-09T14:59:01.612Z,13.30
2022-10-09T15:01:29.752Z,10.68
2022-10-09T15:03:56.854Z,9.43
2022-10-09T15:06:24.116Z,10.67
2022-10-09T15:09:03.157Z,8.80
2022-10-09T15:11:33.256Z,10.98
2022-10-09T15:14:00.155Z,11.38
2022-10-09T15:16:27.092Z,9.05
2022-10-09T15:18:55.967Z,11.47
2022-10-09T15:21:29.900Z,11.18
2022-10-09T15:23:59.073Z,10.93
2022-10-09T15:26:28.645Z,8.82
2022-10-09T15:28:55.617Z,9.07
2022-10-09T15:31:38.420Z,7.07
2022-10-09T15:34:07.562Z,6.00
2022-10-09T15:36:38.380Z,6.72
2022-10-09T15:39:07.666Z,10.48
2022-10-09T15:41:37.064Z,7.70
2022-10-09T15:44:16.386Z,8.43
2022-10-09T15:46:43.865Z,8.63
2022-10-09T15:49:11.116Z,7.47
2022-10-09T15:51:38.255Z,10.38
2022-10-09T15:54:06.044Z,7.40
2022-10-09T15:56:36.091Z,5.27
2022-10-09T15:59:06.624Z,9.07
2022-10-09T16:01:33.570Z,8.18
2022-10-09T16:04:00.544Z,7.82
2022-10-09T16:06:27.484Z,7.57
2022-10-09T16:08:58.550Z,6.43
2022-10-09T16:11:26.799Z,6.78
2022-10-09T16:13:55.409Z,8.27
2022-10-09T16:16:25.868Z,10.90
2022-10-09T16:18:53.463Z,10.57
2022-10-09T16:21:27.369Z,7.30
2022-10-09T16:23:58.873Z,9.73
2022-10-09T16:26:29.245Z,10.65
2022-10-09T16:28:56.342Z,7.80
2022-10-09T16:31:26.998Z,9.63
2022-10-09T16:33:54.485Z,7.13
2022-10-09T16:36:21.648Z,8.95
2022-10-09T16:38:49.139Z,7.25
2022-10-09T16:41:18.972Z,10.88
2022-10-09T16:43:48.861Z,7.95
2022-10-09T16:46:21.382Z,8.07
2022-10-09T16:48:49.545Z,10.05
2022-10-09T16:51:22.665Z,9.48
2022-10-09T16:53:51.671Z,10.73
2022-10-09T16:56:22.395Z,8.85
2022-10-09T16:58:53.190Z,13.43
2022-10-09T17:01:20.116Z,11.10
2022-10-09T17:03:47.224Z,11.60
2022-10-09T17:06:23.476Z,9.80
2022-10-09T17:08:56.325Z,13.77
2022-10-09T17:11:24.273Z,11.93
2022-10-09T17:13:52.279Z,11.95
2022-10-09T17:16:22.381Z,11.73
2022-10-09T17:18:50.182Z,14.85
2022-10-09T17:21:18.851Z,12.13
2022-10-09T17:23:46.670Z,13.57
2022-10-09T17:26:19.221Z,12.50
2022-10-09T17:28:47.831Z,11.32
2022-10-09T17:31:20.456Z,13.10
2022-10-09T17:33:49.333Z,16.20
2022-10-09T17:36:19.847Z,14.50
2022-10-09T17:38:47.603Z,15.50
2022-10-09T17:41:17.053Z,14.65
2022-10-09T17:43:44.482Z,15.40
2022-10-09T17:46:14.525Z,20.55
2022-10-09T17:48:46.977Z,13.70
2022-10-09T17:51:17.623Z,15.52
2022-10-09T17:53:47.116Z,15.38
2022-10-09T17:56:14.829Z,14.93
2022-10-09T17:58:43.693Z,17.85
2022-10-09T18:01:12.207Z,16.83
2022-10-09T18:03:39.216Z,17.50
2022-10-09T18:06:09.398Z,21.48
2022-10-09T18:08:37.074Z,16.95
2022-10-09T18:11:09.704Z,15.05
2022-10-09T18:13:39.396Z,14.70
2022-10-09T18:16:14.417Z,18.10
2022-10-09T18:18:42.933Z,17.52
2022-10-09T18:21:16.691Z,16.58
2022-10-09T18:23:45.848Z,15.27
2022-10-09T18:26:16.481Z,18.67
2022-10-09T18:28:47.498Z,18.35
2022-10-09T18:31:20.608Z,19.23
2022-10-09T18:33:48.191Z,21.80
2022-10-09T18:36:31.005Z,18.05
2022-10-09T18:39:09.352Z,18.40
2022-10-09T18:41:37.222Z,15.63
2022-10-09T18:44:07.349Z,18.60
2022-10-09T18:46:39.475Z,15.98
2022-10-09T18:49:10.520Z,16.05
2022-10-09T18:51:40.560Z,19.47
2022-10-09T18:54:08.504Z,14.18
2022-10-09T18:56:37.041Z,14.38
2022-10-09T18:59:13.944Z,21.40
2022-10-09T19:01:41.260Z,19.48
2022-10-09T19:04:08.516Z,18.67
2022-10-09T19:06:35.888Z,15.40
2022-10-09T19:09:03.295Z,17.70
2022-10-09T19:11:32.654Z,15.38
2022-10-09T19:14:00.527Z,22.30
2022-10-09T19:16:29.258Z,19.67
2022-10-09T19:18:56.818Z,22.15
2022-10-09T19:21:24.188Z,19.95
2022-10-09T19:23:53.332Z,21.13
2022-10-09T19:26:22.683Z,24.05
2022-10-09T19:28:49.684Z,22.33
2022-10-09T19:31:17.414Z,21.38
2022-10-09T19:33:44.315Z,19.80
2022-10-09T19:36:13.778Z,21.33
2022-10-09T19:38:41.395Z,24.20
2022-10-09T19:41:12.763Z,21.77
2022-10-09T19:43:40.084Z,23.95
2022-10-09T19:46:18.605Z,26.58
2022-10-09T19:48:46.104Z,26.55
2022-10-09T19:51:21.664Z,24.90
2022-10-09T19:53:51.884Z,25.73
2022-10-09T19:56:26.319Z,20.75
2022-10-09T19:58:54.893Z,24.67
2022-10-09T20:01:26.123Z,25.63
2022-10-09T20:03:59.014Z,25.55
2022-10-09T20:06:26.719Z,21.77
2022-10-09T20:08:53.932Z,27.00
2022-10-09T20:11:21.243Z,23.45
2022-10-09T20:13:54.845Z,21.92
2022-10-09T20:16:23.971Z,22.42
2022-10-09T20:18:50.843Z,22.97
2022-10-09T20:21:19.442Z,27.60
2022-10-09T20:23:46.484Z,30.65
2022-10-09T20:26:17.364Z,27.77
2022-10-09T20:28:46.136Z,32.03
2022-10-09T20:31:22.477Z,33.80
2022-10-09T20:33:50.833Z,26.70
2022-10-09T20:36:31.038Z,25.67
2022-10-09T20:39:00.512Z,25.80
2022-10-09T20:41:30.127Z,29.83
2022-10-09T20:44:00.334Z,27.60
2022-10-09T20:46:31.123Z,26.88
2022-10-09T20:48:58.574Z,27.60
2022-10-09T20:51:26.304Z,26.92
2022-10-09T20:53:59.360Z,24.15
2022-10-09T20:56:29.793Z,19.67
2022-10-09T20:58:58.172Z,19.63
2022-10-09T21:01:25.697Z,18.25
2022-10-09T21:03:52.675Z,20.08
2022-10-09T21:06:21.496Z,23.02
2022-10-09T21:08:49.334Z,18.47
2022-10-09T21:11:18.405Z,16.25
2022-10-09T21:13:47.072Z,19.02
2022-10-09T21:16:20.595Z,16.63
2022-10-09T21:18:47.754Z,13.80
2022-10-09T21:21:19.072Z,15.13
2022-10-09T21:23:49.297Z,18.75
2022-10-09T21:26:19.033Z,16.42
2022-10-09T21:28:46.631Z,16.92
2022-10-09T21:31:28.768Z,11.98
2022-10-09T21:33:56.903Z,17.57
2022-10-09T21:37:08.483Z,14.15
2022-10-09T21:39:31.089Z,10.27
2022-10-09T21:41:58.167Z,11.43
2022-10-09T21:44:25.042Z,15.70
2022-10-09T21:46:51.935Z,15.43
2022-10-09T21:49:25.667Z,13.30
2022-10-09T21:51:53.007Z,13.75
2022-10-09T21:54:21.270Z,15.57
2022-10-09T21:56:48.496Z,20.90
2022-10-09T21:59:15.440Z,16.60
2022-10-09T22:01:42.356Z,16.38
2022-10-09T22:04:09.304Z,15.75
2022-10-09T22:06:36.210Z,18.48
2022-10-09T22:09:03.998Z,16.75
2022-10-09T22:11:30.935Z,15.40
2022-10-09T22:13:57.878Z,16.73
2022-10-09T22:16:24.840Z,16.90
2022-10-09T22:18:51.911Z,14.55
2022-10-09T22:21:19.325Z,16.02
2022-10-09T22:23:46.304Z,11.00
2022-10-09T22:26:17.718Z,14.57
2022-10-09T22:28:46.358Z,14.77
2022-10-09T22:31:24.702Z,11.38
2022-10-09T22:34:02.427Z,17.23
2022-10-09T22:36:33.183Z,12.47
2022-10-09T22:39:03.899Z,15.13
2022-10-09T22:41:32.850Z,16.65
2022-10-09T22:44:01.450Z,17.88
2022-10-09T22:46:43.627Z,12.40
2022-10-09T22:49:14.651Z,15.77
2022-10-09T22:51:41.721Z,15.57
2022-10-09T22:54:08.856Z,11.48
2022-10-09T22:56:42.839Z,13.70
2022-10-09T22:59:11.698Z,14.95
2022-10-09T23:01:48.264Z,13.47
2022-10-09T23:04:17.935Z,13.93
2022-10-09T23:06:46.091Z,14.18
2022-10-09T23:09:15.151Z,14.05
2022-10-09T23:11:42.888Z,15.77
2022-10-09T23:14:12.087Z,13.93
2022-10-09T23:16:39.672Z,11.90
2022-10-09T23:19:07.463Z,12.27
2022-10-09T23:21:36.837Z,11.80
2022-10-09T23:24:04.532Z,13.63
2022-10-09T23:26:33.547Z,16.03
2022-10-09T23:29:04.491Z,13.57
2022-10-09T23:31:31.544Z,14.52
2022-10-09T23:33:58.988Z,11.38
2022-10-09T23:36:28.514Z,13.98
2022-10-09T23:38:56.626Z,15.53
2022-10-09T23:41:26.385Z,15.43
2022-10-09T23:43:53.632Z,17.15
2022-10-09T23:46:32.721Z,16.05
2022-10-09T23:48:59.757Z,12.32
2022-10-09T23:51:27.508Z,15.33
2022-10-09T23:53:54.791Z,13.98
2022-10-09T23:56:29.272Z,14.77
2022-10-09T23:58:58.889Z,13.95
